Portada
METAR-TAF:

METAR-TAF

Aeroports :

Khon Kaen, Tailàndia

latitud: 16-26N, longitud: 102-50E, altitud: 165 m

Observació

L'informe es va fer fa 47 minuts, a les 18:00 UTC
Vent calma
Temperatura 26°C
Humitat 89%
Pressió 1009 hPa
Visibilitat: 8000 m

METAR: VTUK 231800Z 00000KT 8000 NSC 26/24 Q1009 NOSIG

Hora: 01:47 (18:47 UTC)

Pronòstic

L'informe es va fer fa 1 hora i 47 minuts, a les 17:00 UTC
Pronòstic vàlid del 23 a les 18 UTC al 24 a les 18 UTC
Vent 2 kt amb direcció variable
Visibilitat: 7000 m
Evolucionant progressivament
l' 24 a les 03 UTC al 24 a les 05 UTC
Vent 4 kt del Sud-Oest
Visibilitat 10 km o més
Escasses núvols a una alçada de 2500 ft

TAF: VTUK 231700Z 2318/2418 VRB02KT 7000 NSC BECMG 2403/2405 22004KT 9999 FEW025

Observacions i pronòstics meteorològics de més de 4000 aeroports (METAR i TAF).

Les estacions disponibles són els punts grocs i vermells al mapa.

Posi el ratolí al punt desitjat per veure el nom de l'estació.

Feu clic per veure les observacions i els pronòstics meteorològics.

Per canviar el mapa: feu clic els botons verds amb una creu de color negre per apropar; al botó verd amb un guió per allunyar la imatge; o en les fletxes verdes per a mapes adjacents.


METAR-TAF: